Mulhern, Ontario

2:50 AM EDT on June 27, 2017 (GMT -0400)
JONES CREEK CANADA | | Change Station

Elev 610 ft 43.11 °N, 79.14 °W | Updated 27 days ago

Heavy Rain
Heavy Rain
58.8 °F
Feels Like 58.8 °F
N
0.9
Wind Variable Wind from North
Gusts 2.0 mph

Today
High -- | Low -- °F
--% Chance of Precip.
Yesterday
High -- | Low -- °F
Precip. -- in
Pressure 29.94 in
Visibility 5.0 miles
Clouds Few 3500 ft
Mostly Cloudy 5000 ft
Overcast 7000 ft
Dew Point 56.5 °F
Humidity 92%
Rainfall in
Snow Depth Not available.
5:39 AM 9:00 PM
Waxing Crescent, 14% visible
SPECI KIAG 270641Z AUTO 24013KT 5SM +RA FEW035 BKN050 OVC070 14/09 A2994 RMK AO2 PK WND 23026/0628 RAB18 P0013 T01390094
Pressure 29.94 in
Visibility 5.0 miles
Clouds Few 3500 ft
Mostly Cloudy 5000 ft
Overcast 7000 ft
Dew Point 56.5 °F
Humidity 92%
Rainfall in
Snow Depth Not available.
5:39 AM 9:00 PM
Waxing Crescent, 14% visible
SPECI KIAG 270641Z AUTO 24013KT 5SM +RA FEW035 BKN050 OVC070 14/09 A2994 RMK AO2 PK WND 23026/0628 RAB18 P0013 T01390094

Get Severe Weather Alerts

Thanks for signing up!

Be on the lookout for a verification email in your inbox.

You'll start receiving the daily forecast at 6 AM.

×

10-Day Weather Forecast

Almanac

Astronomy

Jun. 27, 2017 Rise Set
Actual Time
Civil Twilight
Nautical Twilight
Astronomical Twilight
Moon
Length of Visible Light
Length of Day
Tomorrow will be .
, % of the Moon is Illuminated

Today's Extremes

Country Highs Country Lows

Community

WunderPhotos

Category 6

Welcome to Category 6. This is the collective home for Weather Underground's featured writeups by Dr. Jeff Masters (right), Bob Henson (left), Chris Burt, and other regular contributors.

Nearby

Air Quality

  Air Quality AQ Index Pollutant
Not available.

Snow Depth

Station Depth Elevation

Earthquake Activity

City Distance Mag. Time & Date
Minimum magnitude displayed is 2.5.

Coastal Water Temperatures

Place Temperature

Stations

Nearby Weather Stations

Station Location Temp. Windchill Dew Point Humidity Wind Precip. Elev Updated Type
                   

Watches & Warnings

There are currently no watches in effect.